createdAt,value
2022-08-16T00:01:16.073Z,51.60
2022-08-16T00:03:43.988Z,51.30
2022-08-16T00:06:12.941Z,51.10
2022-08-16T00:08:45.865Z,51.60
2022-08-16T00:11:15.799Z,51.50
2022-08-16T00:13:53.092Z,51.80
2022-08-16T00:17:05.986Z,51.70
2022-08-16T00:19:10.312Z,51.90
2022-08-16T00:21:42.171Z,52.20
2022-08-16T00:24:12.509Z,53.20
2022-08-16T00:26:44.510Z,53.90
2022-08-16T00:29:15.743Z,54.20
2022-08-16T00:31:59.064Z,54.30
2022-08-16T00:34:43.999Z,54.50
2022-08-16T00:37:17.109Z,53.80
2022-08-16T00:39:56.920Z,53.50
2022-08-16T00:42:29.502Z,54.90
2022-08-16T00:45:00.010Z,55.90
2022-08-16T00:47:29.938Z,57.50
2022-08-16T00:49:58.207Z,57.70
2022-08-16T00:52:30.007Z,56.60
2022-08-16T00:55:00.164Z,54.60
2022-08-16T00:57:44.542Z,55.40
2022-08-16T01:00:20.252Z,54.80
2022-08-16T01:02:51.949Z,55.60
2022-08-16T01:05:24.024Z,56.10
2022-08-16T01:07:53.157Z,56.30
2022-08-16T01:10:32.404Z,54.60
2022-08-16T01:13:02.309Z,54.70
2022-08-16T01:15:33.261Z,56.00
2022-08-16T01:18:01.157Z,54.50
2022-08-16T01:20:30.460Z,53.90
2022-08-16T01:22:59.576Z,53.90
2022-08-16T01:25:34.083Z,53.80
2022-08-16T01:28:02.879Z,53.70
2022-08-16T01:30:33.199Z,53.60
2022-08-16T01:33:14.643Z,53.60
2022-08-16T01:35:44.718Z,53.40
2022-08-16T01:38:19.611Z,54.10
2022-08-16T01:40:49.454Z,53.90
2022-08-16T01:43:17.426Z,54.50
2022-08-16T01:45:46.130Z,55.50
2022-08-16T01:48:19.729Z,54.70
2022-08-16T01:51:08.926Z,54.80
2022-08-16T01:53:36.350Z,54.20
2022-08-16T01:56:24.724Z,54.60
2022-08-16T01:58:53.727Z,55.10
2022-08-16T02:01:21.719Z,55.30
2022-08-16T02:03:50.673Z,54.90
2022-08-16T02:06:34.252Z,54.70
2022-08-16T02:09:06.116Z,55.20
2022-08-16T02:11:47.772Z,54.50
2022-08-16T02:14:21.431Z,54.80
2022-08-16T02:16:49.701Z,54.90
2022-08-16T02:19:18.588Z,56.30
2022-08-16T02:22:09.248Z,57.70
2022-08-16T02:24:42.011Z,58.20
2022-08-16T02:27:11.458Z,60.20
2022-08-16T02:29:41.362Z,59.80
2022-08-16T02:32:50.734Z,60.70
2022-08-16T02:34:57.890Z,59.30
2022-08-16T02:37:51.742Z,57.50
2022-08-16T02:40:16.586Z,56.90
2022-08-16T02:42:45.848Z,56.40
2022-08-16T02:45:17.517Z,56.50
2022-08-16T02:48:01.894Z,57.40
2022-08-16T02:50:53.944Z,57.00
2022-08-16T02:53:23.631Z,57.00
2022-08-16T02:55:51.730Z,57.60
2022-08-16T02:58:25.033Z,58.60
2022-08-16T03:00:55.922Z,61.20
2022-08-16T03:03:25.023Z,60.80
2022-08-16T03:05:53.358Z,58.90
2022-08-16T03:08:49.668Z,58.10
2022-08-16T03:11:17.761Z,58.50
2022-08-16T03:13:51.208Z,58.70
2022-08-16T03:16:38.491Z,58.90
2022-08-16T03:19:07.719Z,58.10
2022-08-16T03:21:38.014Z,57.90
2022-08-16T03:24:28.250Z,57.90
2022-08-16T03:26:57.748Z,59.10
2022-08-16T03:29:30.154Z,59.80
2022-08-16T03:31:58.967Z,59.20
2022-08-16T03:34:27.615Z,60.80
2022-08-16T03:36:55.572Z,58.60
2022-08-16T03:39:23.564Z,57.50
2022-08-16T03:41:59.643Z,57.40
2022-08-16T03:44:44.661Z,57.90
2022-08-16T03:47:19.827Z,58.70
2022-08-16T03:49:51.909Z,58.60
2022-08-16T03:52:20.495Z,61.00
2022-08-16T03:54:57.367Z,60.80
2022-08-16T03:57:31.991Z,59.10
2022-08-16T04:00:20.169Z,59.10
2022-08-16T04:03:02.528Z,59.40
2022-08-16T04:05:33.364Z,59.40
2022-08-16T04:08:23.218Z,59.10
2022-08-16T04:10:51.726Z,58.40
2022-08-16T04:13:20.302Z,58.00
2022-08-16T04:16:09.379Z,59.60
2022-08-16T04:19:02.014Z,60.80
2022-08-16T04:21:32.098Z,59.70
2022-08-16T04:24:00.348Z,59.40
2022-08-16T04:26:31.110Z,59.10
2022-08-16T04:29:17.221Z,59.10
2022-08-16T04:31:56.488Z,60.50
2022-08-16T04:34:26.898Z,62.40
2022-08-16T04:36:54.782Z,60.50
2022-08-16T04:39:23.804Z,59.80
2022-08-16T04:41:57.004Z,59.80
2022-08-16T04:44:52.895Z,59.20
2022-08-16T04:47:21.612Z,59.20
2022-08-16T04:49:52.678Z,59.10
2022-08-16T04:52:33.876Z,58.20
2022-08-16T04:55:04.238Z,58.10
2022-08-16T04:57:32.129Z,58.00
2022-08-16T05:00:31.328Z,57.50
2022-08-16T05:02:55.608Z,56.60
2022-08-16T05:05:24.459Z,58.10
2022-08-16T05:07:59.662Z,57.70
2022-08-16T05:10:28.406Z,57.90
2022-08-16T05:12:57.785Z,57.00
2022-08-16T05:15:25.872Z,57.80
2022-08-16T05:17:58.807Z,59.10
2022-08-16T05:20:39.566Z,58.60
2022-08-16T05:23:19.266Z,58.40
2022-08-16T05:25:49.138Z,58.30
2022-08-16T05:28:17.458Z,58.60
2022-08-16T05:30:45.964Z,59.90
2022-08-16T05:33:21.174Z,59.70
2022-08-16T05:35:54.629Z,59.80
2022-08-16T05:38:32.828Z,59.90
2022-08-16T05:41:07.171Z,59.50
2022-08-16T05:43:46.508Z,59.30
2022-08-16T05:46:28.752Z,59.50
2022-08-16T05:49:08.758Z,60.30
2022-08-16T05:51:40.051Z,60.50
2022-08-16T05:54:09.720Z,60.00
2022-08-16T05:56:39.867Z,60.10
2022-08-16T05:59:07.761Z,60.60
2022-08-16T06:01:38.159Z,60.40
2022-08-16T06:04:12.936Z,60.60
2022-08-16T06:06:41.959Z,61.00
2022-08-16T06:09:23.682Z,60.10
2022-08-16T06:11:51.999Z,60.10
2022-08-16T06:14:19.926Z,60.30
2022-08-16T06:16:50.524Z,59.30
2022-08-16T06:19:20.403Z,58.90
2022-08-16T06:21:55.160Z,60.40
2022-08-16T06:24:54.955Z,60.60
2022-08-16T06:27:11.801Z,59.80
2022-08-16T06:29:41.026Z,58.30
2022-08-16T06:32:11.628Z,57.40
2022-08-16T06:35:02.819Z,57.10
2022-08-16T06:37:35.609Z,56.80
2022-08-16T06:40:12.454Z,56.00
2022-08-16T06:42:47.749Z,56.30
2022-08-16T06:45:16.329Z,56.40
2022-08-16T06:47:54.110Z,55.70
2022-08-16T06:50:29.551Z,55.40
2022-08-16T06:53:01.140Z,54.90
2022-08-16T06:55:35.455Z,53.80
2022-08-16T06:58:08.299Z,52.30
2022-08-16T07:00:37.740Z,52.40
2022-08-16T07:03:26.511Z,51.70
2022-08-16T07:05:57.051Z,51.80
2022-08-16T07:08:25.010Z,50.90
2022-08-16T07:10:55.479Z,50.90
2022-08-16T07:13:57.650Z,51.10
2022-08-16T07:16:15.461Z,50.30
2022-08-16T07:18:58.219Z,50.30
2022-08-16T07:21:42.296Z,50.10
2022-08-16T07:24:30.593Z,50.10
2022-08-16T07:26:59.125Z,50.40
2022-08-16T07:29:31.508Z,50.10
2022-08-16T07:32:00.677Z,49.40
2022-08-16T07:34:35.328Z,49.00
2022-08-16T07:37:06.387Z,48.70
2022-08-16T07:39:34.406Z,47.80
2022-08-16T07:42:19.960Z,47.00
2022-08-16T07:44:50.535Z,47.60
2022-08-16T07:47:18.795Z,48.00
2022-08-16T07:49:53.144Z,47.00
2022-08-16T07:52:29.629Z,47.30
2022-08-16T07:54:57.770Z,46.30
2022-08-16T07:57:26.233Z,46.70
2022-08-16T07:59:57.001Z,46.40
2022-08-16T08:02:27.386Z,45.90
2022-08-16T08:04:55.596Z,44.90
2022-08-16T08:07:28.161Z,45.30
2022-08-16T08:09:57.757Z,45.10
2022-08-16T08:12:40.742Z,43.60
2022-08-16T08:15:12.366Z,43.70
2022-08-16T08:17:42.517Z,43.30
2022-08-16T08:20:12.095Z,44.10
2022-08-16T08:22:40.010Z,44.10
2022-08-16T08:25:09.699Z,42.90
2022-08-16T08:27:44.216Z,42.70
2022-08-16T08:30:49.479Z,43.60
2022-08-16T08:33:01.132Z,42.90
2022-08-16T08:35:29.207Z,41.90
2022-08-16T08:37:57.105Z,42.90
2022-08-16T08:40:27.410Z,41.70
2022-08-16T08:42:57.909Z,42.00
2022-08-16T08:45:48.135Z,43.30
2022-08-16T08:48:34.086Z,43.30
2022-08-16T08:51:03.587Z,43.30
2022-08-16T08:53:33.683Z,42.40
2022-08-16T08:56:22.595Z,42.00
2022-08-16T08:58:53.890Z,41.00
2022-08-16T09:01:31.804Z,41.40
2022-08-16T09:04:05.463Z,40.70
2022-08-16T09:06:33.848Z,41.60
2022-08-16T09:09:02.800Z,41.40
2022-08-16T09:11:40.438Z,40.20
2022-08-16T09:14:09.221Z,41.60
2022-08-16T09:17:03.849Z,39.70
2022-08-16T09:19:40.801Z,38.70
2022-08-16T09:22:20.148Z,39.00
2022-08-16T09:24:53.328Z,38.40
2022-08-16T09:27:23.442Z,38.00
2022-08-16T09:30:00.365Z,37.50
2022-08-16T09:32:30.710Z,39.00
2022-08-16T09:34:59.240Z,37.70
2022-08-16T09:37:29.759Z,37.00
2022-08-16T09:39:59.719Z,38.60
2022-08-16T09:42:29.843Z,42.20
2022-08-16T09:45:11.272Z,41.30
2022-08-16T09:47:56.575Z,40.50
2022-08-16T09:50:36.889Z,37.80
2022-08-16T09:53:07.819Z,37.70
2022-08-16T09:55:44.337Z,37.50
2022-08-16T09:58:40.470Z,37.20
2022-08-16T10:01:02.066Z,36.90
2022-08-16T10:03:31.298Z,37.60
2022-08-16T10:05:59.220Z,39.60
2022-08-16T10:08:27.675Z,38.50
2022-08-16T10:11:12.972Z,37.20
2022-08-16T10:13:44.274Z,35.90
2022-08-16T10:19:00.509Z,35.90
2022-08-16T10:21:32.123Z,37.10
2022-08-16T10:24:00.187Z,35.90
2022-08-16T10:27:20.234Z,35.70
2022-08-16T10:29:20.086Z,34.40
2022-08-16T10:31:53.680Z,37.70
2022-08-16T10:34:30.816Z,36.30
2022-08-16T10:36:59.987Z,36.90
2022-08-16T10:39:40.375Z,40.30
2022-08-16T10:42:10.298Z,39.90
2022-08-16T10:44:46.553Z,38.80
2022-08-16T10:47:14.801Z,36.60
2022-08-16T10:49:45.031Z,36.40
2022-08-16T10:52:18.988Z,35.50
2022-08-16T10:57:35.316Z,35.90
2022-08-16T11:00:06.888Z,36.40
2022-08-16T11:03:37.432Z,36.90
2022-08-16T11:08:35.788Z,36.50
2022-08-16T11:11:12.745Z,37.20
2022-08-16T11:14:11.038Z,37.10
2022-08-16T11:19:26.444Z,36.20
2022-08-16T11:22:38.898Z,36.00
2022-08-16T11:24:46.105Z,36.00
2022-08-16T11:27:35.894Z,35.90
2022-08-16T11:30:04.913Z,34.90
2022-08-16T11:32:38.622Z,33.60
2022-08-16T11:35:10.979Z,33.20
2022-08-16T11:40:33.114Z,33.50
2022-08-16T11:43:01.384Z,32.60
2022-08-16T11:45:33.698Z,33.10
2022-08-16T11:48:03.958Z,32.30
2022-08-16T11:50:33.617Z,31.60
2022-08-16T11:53:03.385Z,31.00
2022-08-16T11:55:32.025Z,31.10
2022-08-16T11:58:00.373Z,31.60
2022-08-16T12:00:33.891Z,31.50
2022-08-16T12:03:17.932Z,31.70
2022-08-16T12:05:46.034Z,31.70
2022-08-16T12:08:15.047Z,31.20
2022-08-16T12:10:46.748Z,31.10
2022-08-16T12:13:14.756Z,32.40
2022-08-16T12:15:42.734Z,32.40
2022-08-16T12:18:11.342Z,31.80
2022-08-16T12:20:50.107Z,32.20
2022-08-16T12:23:18.068Z,30.70
2022-08-16T12:25:46.303Z,30.00
2022-08-16T12:28:14.201Z,30.00
2022-08-16T12:30:42.601Z,29.60
2022-08-16T12:33:11.436Z,30.90
2022-08-16T12:35:40.052Z,31.60
2022-08-16T12:38:38.715Z,31.20
2022-08-16T12:41:01.113Z,30.50
2022-08-16T12:43:31.261Z,31.50
2022-08-16T12:45:59.655Z,29.60
2022-08-16T12:48:50.270Z,29.60
2022-08-16T12:51:23.924Z,30.00
2022-08-16T12:53:54.423Z,30.90
2022-08-16T12:56:25.377Z,31.10
2022-08-16T12:58:53.526Z,31.70
2022-08-16T13:01:25.684Z,31.40
2022-08-16T13:04:11.633Z,33.30
2022-08-16T13:06:44.274Z,31.80
2022-08-16T13:09:20.562Z,30.90
2022-08-16T13:11:56.925Z,29.40
2022-08-16T13:14:30.888Z,29.50
2022-08-16T13:17:01.249Z,29.20
2022-08-16T13:19:56.015Z,30.50
2022-08-16T13:22:19.698Z,29.20
2022-08-16T13:24:51.280Z,28.80
2022-08-16T13:27:20.867Z,29.50
2022-08-16T13:30:21.833Z,28.50
2022-08-16T13:32:55.941Z,29.20
2022-08-16T13:35:24.095Z,28.30
2022-08-16T13:37:53.142Z,28.10
2022-08-16T13:40:23.506Z,28.40
2022-08-16T13:42:53.503Z,29.70
2022-08-16T13:45:21.635Z,29.20
2022-08-16T13:47:52.964Z,28.70
2022-08-16T13:50:31.377Z,28.20
2022-08-16T13:53:09.228Z,28.50
2022-08-16T13:55:38.856Z,27.50
2022-08-16T13:58:36.758Z,28.20
2022-08-16T14:00:57.167Z,29.80
2022-08-16T14:03:25.155Z,27.20
2022-08-16T14:05:53.749Z,26.30
2022-08-16T14:08:26.619Z,27.60
2022-08-16T14:10:56.543Z,29.70
2022-08-16T14:13:24.480Z,30.70
2022-08-16T14:15:52.438Z,29.00
2022-08-16T14:18:21.036Z,27.20
2022-08-16T14:20:51.247Z,27.00
2022-08-16T14:23:21.809Z,27.50
2022-08-16T14:25:53.926Z,27.30
2022-08-16T14:28:25.721Z,27.70
2022-08-16T14:30:54.103Z,30.00
2022-08-16T14:33:22.224Z,28.10
2022-08-16T14:35:50.899Z,27.60
2022-08-16T14:38:23.875Z,26.80
2022-08-16T14:40:54.999Z,27.00
2022-08-16T14:43:25.494Z,26.60
2022-08-16T14:45:55.600Z,26.20
2022-08-16T14:48:26.298Z,26.00
2022-08-16T14:50:54.783Z,26.80
2022-08-16T14:53:23.345Z,26.60
2022-08-16T14:55:51.260Z,26.60
2022-08-16T14:58:20.275Z,26.80
2022-08-16T15:01:04.648Z,27.70
2022-08-16T15:03:33.224Z,27.10
2022-08-16T15:06:05.365Z,28.10
2022-08-16T15:08:36.313Z,28.10
2022-08-16T15:11:07.725Z,27.70
2022-08-16T15:13:36.015Z,27.80
2022-08-16T15:16:05.491Z,28.20
2022-08-16T15:18:34.458Z,27.50
2022-08-16T15:21:04.058Z,27.00
2022-08-16T15:23:33.956Z,27.10
2022-08-16T15:26:03.911Z,27.30
2022-08-16T15:28:32.575Z,27.90
2022-08-16T15:31:03.614Z,28.80
2022-08-16T15:33:33.953Z,29.10
2022-08-16T15:36:02.356Z,29.40
2022-08-16T15:38:54.968Z,30.50
2022-08-16T15:41:30.084Z,29.10
2022-08-16T15:44:05.164Z,30.30
2022-08-16T15:46:58.400Z,28.30
2022-08-16T15:49:34.506Z,28.00
2022-08-16T15:52:10.569Z,29.10
2022-08-16T15:54:51.445Z,28.70
2022-08-16T15:57:20.718Z,29.80
2022-08-16T15:59:52.868Z,30.90
2022-08-16T16:02:27.326Z,28.50
2022-08-16T16:05:00.760Z,28.10
2022-08-16T16:07:30.191Z,27.60
2022-08-16T16:09:59.117Z,28.10
2022-08-16T16:15:16.222Z,28.70
2022-08-16T16:17:44.254Z,31.00
2022-08-16T16:20:20.674Z,29.60
2022-08-16T16:22:49.914Z,30.20
2022-08-16T16:25:18.171Z,29.80
2022-08-16T16:27:46.631Z,29.10
2022-08-16T16:30:37.897Z,29.00
2022-08-16T16:33:20.644Z,30.40
2022-08-16T16:35:55.229Z,29.00
2022-08-16T16:38:26.511Z,29.00
2022-08-16T16:40:54.953Z,29.40
2022-08-16T16:43:25.417Z,28.90
2022-08-16T16:45:54.039Z,28.60
2022-08-16T16:48:22.656Z,27.20
2022-08-16T16:50:59.239Z,27.10
2022-08-16T16:53:31.818Z,27.00
2022-08-16T16:56:08.911Z,27.20
2022-08-16T16:59:00.930Z,28.00
2022-08-16T17:01:35.140Z,27.80
2022-08-16T17:04:31.431Z,27.80
2022-08-16T17:07:01.525Z,28.30
2022-08-16T17:09:29.778Z,27.70
2022-08-16T17:11:58.273Z,27.80
2022-08-16T17:17:14.232Z,28.70
2022-08-16T17:19:42.550Z,29.70
2022-08-16T17:22:14.912Z,28.90
2022-08-16T17:24:45.310Z,29.10
2022-08-16T17:27:32.597Z,28.50
2022-08-16T17:30:02.712Z,28.20
2022-08-16T17:32:34.163Z,28.90
2022-08-16T17:35:18.884Z,28.90
2022-08-16T17:37:50.776Z,28.50
2022-08-16T17:39:28.121Z,28.50
2022-08-16T17:40:25.865Z,28.80
2022-08-16T17:43:10.306Z,29.30
2022-08-16T17:45:39.312Z,29.20
2022-08-16T17:48:07.295Z,29.70
2022-08-16T17:50:35.882Z,29.70
2022-08-16T17:53:05.463Z,30.00
2022-08-16T17:55:34.438Z,30.40
2022-08-16T17:58:09.845Z,29.60
2022-08-16T18:00:50.269Z,29.40
2022-08-16T18:03:18.674Z,29.70
2022-08-16T18:06:06.878Z,30.10
2022-08-16T18:08:36.144Z,30.80
2022-08-16T18:11:04.541Z,32.50
2022-08-16T18:13:35.914Z,33.20
2022-08-16T18:16:04.004Z,33.10
2022-08-16T18:18:31.926Z,33.80
2022-08-16T18:21:17.197Z,35.10
2022-08-16T18:23:46.521Z,35.30
2022-08-16T18:26:14.433Z,35.80
2022-08-16T18:28:42.694Z,36.10
2022-08-16T18:31:10.643Z,35.50
2022-08-16T18:33:42.779Z,35.40
2022-08-16T18:36:20.902Z,35.50
2022-08-16T18:38:50.891Z,36.00
2022-08-16T18:41:18.795Z,36.00
2022-08-16T18:44:00.883Z,36.30
2022-08-16T18:46:34.755Z,36.80
2022-08-16T18:49:02.668Z,37.30
2022-08-16T18:51:31.730Z,37.30
2022-08-16T18:54:01.014Z,37.80
2022-08-16T18:56:55.080Z,37.90
2022-08-16T18:59:16.851Z,38.30
2022-08-16T19:01:44.931Z,38.30
2022-08-16T19:04:48.101Z,38.30
2022-08-16T19:07:00.725Z,38.20
2022-08-16T19:09:30.058Z,38.20
2022-08-16T19:11:57.951Z,38.60
2022-08-16T19:14:30.090Z,38.70
2022-08-16T19:16:58.090Z,38.80
2022-08-16T19:19:26.058Z,39.40
2022-08-16T19:21:53.954Z,39.40
2022-08-16T19:24:21.865Z,39.30
2022-08-16T19:26:51.992Z,39.20
2022-08-16T19:29:21.970Z,39.50
2022-08-16T19:31:50.352Z,39.80
2022-08-16T19:34:18.668Z,40.20
2022-08-16T19:36:46.563Z,40.30
2022-08-16T19:39:16.842Z,40.70
2022-08-16T19:41:45.186Z,40.80
2022-08-16T19:44:14.525Z,41.10
2022-08-16T19:46:44.951Z,41.70
2022-08-16T19:49:16.212Z,42.50
2022-08-16T19:51:44.581Z,42.50
2022-08-16T19:54:12.536Z,42.20
2022-08-16T19:56:40.428Z,42.90
2022-08-16T19:59:40.491Z,42.20
2022-08-16T20:01:57.617Z,42.70
2022-08-16T20:04:25.953Z,42.90
2022-08-16T20:06:53.989Z,44.00
2022-08-16T20:09:22.017Z,43.20
2022-08-16T20:11:50.003Z,42.80
2022-08-16T20:14:24.775Z,42.80
2022-08-16T20:16:54.187Z,42.30
2022-08-16T20:19:23.477Z,42.20
2022-08-16T20:21:51.509Z,42.10
2022-08-16T20:24:36.202Z,42.30
2022-08-16T20:27:04.596Z,43.00
2022-08-16T20:29:32.534Z,43.00
2022-08-16T20:32:00.409Z,43.00
2022-08-16T20:34:29.729Z,43.40
2022-08-16T20:36:57.644Z,43.00
2022-08-16T20:39:25.634Z,43.30
2022-08-16T20:41:53.588Z,43.90
2022-08-16T20:44:22.782Z,44.00
2022-08-16T20:46:52.887Z,43.90
2022-08-16T20:49:20.825Z,43.80
2022-08-16T20:51:54.667Z,44.30
2022-08-16T20:54:23.943Z,44.00
2022-08-16T20:56:51.850Z,44.40
2022-08-16T20:59:19.770Z,45.40
2022-08-16T21:01:50.158Z,44.90
2022-08-16T21:04:18.949Z,44.20
2022-08-16T21:06:53.562Z,44.00
2022-08-16T21:09:24.725Z,44.40
2022-08-16T21:11:53.038Z,44.80
2022-08-16T21:14:20.970Z,46.00
2022-08-16T21:16:48.869Z,46.30
2022-08-16T21:19:16.799Z,45.30
2022-08-16T21:21:44.676Z,44.20
2022-08-16T21:24:12.636Z,43.80
2022-08-16T21:26:45.230Z,44.40
2022-08-16T21:29:25.040Z,44.60
2022-08-16T21:31:55.843Z,44.80
2022-08-16T21:34:23.752Z,44.80
2022-08-16T21:36:51.724Z,45.40
2022-08-16T21:39:19.637Z,45.10
2022-08-16T21:41:48.904Z,44.80
2022-08-16T21:44:16.926Z,45.00
2022-08-16T21:46:44.798Z,45.00
2022-08-16T21:49:12.744Z,45.00
2022-08-16T21:51:40.632Z,45.20
2022-08-16T21:54:08.592Z,45.10
2022-08-16T21:56:36.510Z,46.10
2022-08-16T21:59:10.945Z,45.90
2022-08-16T22:01:39.802Z,47.20
2022-08-16T22:04:36.688Z,46.50
2022-08-16T22:06:57.119Z,46.00
2022-08-16T22:09:25.302Z,45.30
2022-08-16T22:11:53.194Z,44.90
2022-08-16T22:14:22.473Z,47.00
2022-08-16T22:16:50.364Z,46.60
2022-08-16T22:19:18.403Z,46.30
2022-08-16T22:21:46.341Z,46.00
2022-08-16T22:24:14.260Z,46.10
2022-08-16T22:26:43.483Z,46.40
2022-08-16T22:29:12.322Z,45.60
2022-08-16T22:31:41.735Z,46.50
2022-08-16T22:34:09.645Z,46.90
2022-08-16T22:36:37.541Z,46.20
2022-08-16T22:39:06.184Z,46.70
2022-08-16T22:41:34.364Z,46.30
2022-08-16T22:44:02.348Z,46.30
2022-08-16T22:46:30.353Z,46.70
2022-08-16T22:48:59.699Z,47.40
2022-08-16T22:51:28.134Z,47.30
2022-08-16T22:53:56.287Z,47.40
2022-08-16T22:56:24.802Z,47.10
2022-08-16T22:58:52.808Z,47.40
2022-08-16T23:01:21.298Z,46.90
2022-08-16T23:03:49.279Z,46.80
2022-08-16T23:06:18.561Z,46.80
2022-08-16T23:08:46.448Z,45.90
2022-08-16T23:11:16.080Z,46.40
2022-08-16T23:13:50.731Z,46.30
2022-08-16T23:16:22.217Z,47.40
2022-08-16T23:18:50.528Z,47.70
2022-08-16T23:21:19.827Z,47.50
2022-08-16T23:23:49.997Z,47.10
2022-08-16T23:26:46.830Z,48.30
2022-08-16T23:29:06.654Z,47.50
2022-08-16T23:31:49.877Z,47.60
2022-08-16T23:34:18.001Z,47.90
2022-08-16T23:36:47.237Z,47.60
2022-08-16T23:39:15.139Z,47.70
2022-08-16T23:41:43.905Z,47.70
2022-08-16T23:44:55.115Z,48.00
2022-08-16T23:46:59.738Z,47.50
2022-08-16T23:49:57.017Z,47.90
2022-08-16T23:52:16.908Z,48.40
2022-08-16T23:54:44.823Z,49.00
2022-08-16T23:57:12.759Z,47.80
2022-08-16T23:59:45.258Z,47.50
